Time;durP1;ratioP1;P1;durP2;ratioP2;P2;SDS_P1;SDS_P2;PMS_P1;PMS_P2;Temp;Humidity;BMP_temperature;BMP_pressure;BME280_temperature;BME280_humidity;BME280_pressure;Samples;Min_cycle;Max_cycle;Signal;HPM_P1;HPM_P2
2023/02/15 16:37:59;;;;;;;41.83;22.15;;;8.10;99.90;;;;;;5086124;27;1241459;-61
2023/02/15 16:40:27;;;;;;;40.15;22.02;;;8.10;99.90;;;;;;5108451;28;20032;-61
2023/02/15 16:43:01;;;;;;;39.88;21.50;;;8.10;99.90;;;;;;5107612;28;20016;-61
2023/02/15 16:45:28;;;;;;;38.22;18.23;;;8.10;99.90;;;;;;5108406;28;20484;-61
2023/02/15 16:47:57;;;;;;;36.75;18.15;;;8.10;99.90;;;;;;5106655;28;20024;-61
2023/02/15 16:50:32;;;;;;;34.72;18.17;;;8.10;99.90;;;;;;5107592;28;20019;-61
2023/02/15 16:52:59;;;;;;;34.42;17.92;;;8.00;99.90;;;;;;5107981;28;20031;-61
2023/02/15 16:55:28;;;;;;;35.63;17.00;;;8.00;99.90;;;;;;5108237;28;20028;-62
2023/02/15 16:58:00;;;;;;;30.92;16.73;;;8.00;99.90;;;;;;5106796;28;20495;-61
2023/02/15 17:00:30;;;;;;;34.05;18.00;;;8.10;99.90;;;;;;5107967;28;20020;-61
2023/02/15 17:03:06;;;;;;;36.97;17.80;;;8.00;99.90;;;;;;5106850;28;20016;-62
2023/02/15 17:05:44;;;;;;;29.88;17.08;;;8.10;99.90;;;;;;5108493;28;20059;-62
2023/02/15 17:08:16;;;;;;;32.17;17.23;;;8.10;99.90;;;;;;5107151;28;20018;-62
2023/02/15 17:11:02;;;;;;;27.73;15.88;;;8.20;99.90;;;;;;5105344;28;20419;-62
2023/02/15 17:13:28;;;;;;;33.05;15.25;;;8.20;99.90;;;;;;5107427;28;20047;-61
2023/02/15 17:16:00;;;;;;;31.30;16.15;;;8.20;99.90;;;;;;5107574;28;20088;-61
2023/02/15 17:18:46;;;;;;;;;;;8.20;99.90;;;;;;5107042;28;20028;-61
2023/02/15 17:21:24;;;;;;;31.83;15.50;;;8.20;99.90;;;;;;5107037;28;19912;-61
2023/02/15 17:23:51;;;;;;;28.48;16.25;;;8.20;99.90;;;;;;5107264;28;20543;-61
2023/02/15 17:26:28;;;;;;;36.63;16.80;;;8.20;99.90;;;;;;5089937;28;20652;-62
2023/02/15 17:28:59;;;;;;;34.90;17.58;;;8.20;99.90;;;;;;5107281;28;20061;-62
2023/02/15 17:31:29;;;;;;;31.27;17.25;;;8.10;99.90;;;;;;5088784;28;20040;-61
2023/02/15 17:33:56;;;;;;;35.13;17.08;;;8.00;99.90;;;;;;5088978;28;20066;-61
2023/02/15 17:36:23;;;;;;;27.85;16.33;;;8.00;99.90;;;;;;5088942;28;20139;-61
2023/02/15 17:39:02;;;;;;;28.73;16.48;;;8.00;99.90;;;;;;5087396;28;20419;-62
2023/02/15 17:41:34;;;;;;;27.85;15.93;;;7.90;99.90;;;;;;5107380;28;20376;-62
2023/02/15 17:44:01;;;;;;;30.08;17.60;;;7.90;99.90;;;;;;5106106;28;20111;-62
2023/02/15 17:46:34;;;;;;;32.80;17.60;;;7.90;99.90;;;;;;5106356;28;20045;-62
2023/02/15 17:49:00;;;;;;;34.13;17.15;;;7.90;99.90;;;;;;5094003;28;20024;-62
2023/02/15 17:51:25;;;;;;;33.03;16.83;;;7.80;99.90;;;;;;5087307;28;20028;-62
2023/02/15 17:56:37;;;;;;;30.55;16.02;;;7.90;99.90;;;;;;5092796;28;20046;-60
2023/02/15 17:59:06;;;;;;;28.90;15.68;;;7.80;99.90;;;;;;5092064;28;20035;-60
2023/02/15 18:12:37;;;;;;;34.60;17.80;;;7.60;99.90;;;;;;5083760;28;20400;-60
2023/02/15 18:15:03;;;;;;;35.22;17.73;;;7.60;99.90;;;;;;5074140;28;20043;-60
2023/02/15 18:17:35;;;;;;;35.58;18.33;;;7.50;99.90;;;;;;5092242;28;20040;-60
2023/02/15 18:20:05;;;;;;;37.05;17.58;;;7.50;99.90;;;;;;5091944;28;20020;-60
2023/02/15 18:22:32;;;;;;;35.03;17.83;;;7.40;99.90;;;;;;5074699;28;20008;-60
2023/02/15 18:24:58;;;;;;;35.40;19.60;;;7.40;99.90;;;;;;5092043;28;20283;-60
2023/02/15 18:27:24;;;;;;;44.20;19.58;;;7.30;99.90;;;;;;5091641;28;20144;-60
2023/02/15 18:29:49;;;;;;;37.17;19.40;;;7.30;99.90;;;;;;5092632;28;20060;-59
2023/02/15 18:32:22;;;;;;;33.45;18.63;;;7.20;99.90;;;;;;5092368;28;20016;-60
2023/02/15 18:34:48;;;;;;;33.38;17.55;;;7.10;99.90;;;;;;5091983;28;20037;-60
2023/02/15 18:37:20;;;;;;;32.72;17.15;;;7.10;99.90;;;;;;5091661;28;20109;-60
2023/02/15 18:39:48;;;;;;;33.72;18.60;;;7.10;99.90;;;;;;5079373;28;20056;-60
2023/02/15 18:42:28;;;;;;;33.50;17.05;;;7.10;99.90;;;;;;5071600;28;20032;-61
2023/02/15 18:45:06;;;;;;;28.60;15.77;;;7.00;99.90;;;;;;5090100;28;20034;-61
2023/02/15 18:47:31;;;;;;;29.23;15.90;;;7.00;99.90;;;;;;5091877;28;20103;-60
2023/02/15 18:49:57;;;;;;;33.85;16.50;;;7.00;99.90;;;;;;5091040;28;20095;-60
2023/02/15 18:52:26;;;;;;;32.67;17.10;;;6.90;99.90;;;;;;5082287;28;20028;-60
2023/02/15 18:54:57;;;;;;;35.95;18.75;;;6.90;99.90;;;;;;5078063;28;20028;-61
2023/02/15 18:57:23;;;;;;;32.42;17.77;;;6.90;99.90;;;;;;5091396;28;20476;-60
2023/02/15 18:59:48;;;;;;;33.25;17.95;;;6.90;99.90;;;;;;5090995;28;20172;-61
2023/02/15 19:02:16;;;;;;;32.83;17.17;;;6.80;99.90;;;;;;5091513;28;20016;-60
2023/02/15 19:04:43;;;;;;;34.47;17.73;;;6.80;99.90;;;;;;5074001;28;20035;-60
2023/02/15 19:07:17;;;;;;;32.67;17.33;;;6.80;99.90;;;;;;5091676;28;20016;-61
2023/02/15 19:09:46;;;;;;;37.53;19.08;;;6.70;99.90;;;;;;5091290;28;20020;-60
2023/02/15 19:12:12;;;;;;;37.67;18.25;;;6.70;99.90;;;;;;5091658;28;20527;-60
2023/02/15 19:14:38;;;;;;;38.72;18.33;;;6.60;99.90;;;;;;5073474;28;20511;-61
2023/02/15 19:17:09;;;;;;;35.95;19.42;;;6.60;99.90;;;;;;5090672;28;20032;-61
2023/02/15 19:19:34;;;;;;;40.63;19.23;;;6.50;99.90;;;;;;5073068;28;20028;-60
2023/02/15 19:22:01;;;;;;;35.13;18.13;;;6.50;99.90;;;;;;5091634;28;20027;-60
2023/02/15 19:24:39;;;;;;;37.80;19.25;;;6.50;99.90;;;;;;5091261;28;20032;-60
2023/02/15 19:27:10;;;;;;;36.08;19.75;;;6.40;99.90;;;;;;5091426;28;20027;-60
2023/02/15 19:29:36;;;;;;;;;;;6.40;99.90;;;;;;5091690;28;20062;-60
2023/02/15 19:32:01;;;;;;;34.70;16.83;;;6.40;99.90;;;;;;5090852;28;19911;-61
2023/02/15 19:34:27;;;;;;;37.22;18.52;;;6.30;99.90;;;;;;5091400;28;20441;-61
2023/02/15 19:36:55;;;;;;;32.28;17.00;;;6.30;99.90;;;;;;5090095;28;20124;-61
2023/02/15 19:39:37;;;;;;;37.35;19.10;;;6.30;99.90;;;;;;5090171;28;20460;-60
2023/02/15 19:42:03;;;;;;;36.05;18.80;;;6.40;99.90;;;;;;5091427;28;20012;-61
2023/02/15 19:44:29;;;;;;;33.55;17.98;;;6.30;99.90;;;;;;5072755;28;20439;-61
2023/02/15 19:46:54;;;;;;;32.13;17.27;;;6.30;99.90;;;;;;5090582;28;20027;-60
2023/02/15 19:49:20;;;;;;;36.55;19.08;;;6.30;99.90;;;;;;5090060;28;20111;-61
2023/02/15 19:51:46;;;;;;;35.00;16.60;;;6.30;99.90;;;;;;5090038;28;20420;-61
2023/02/15 19:54:32;;;;;;;37.15;17.48;;;6.30;99.90;;;;;;5090594;28;20463;-62
2023/02/15 19:56:57;;;;;;;35.22;17.33;;;6.40;99.90;;;;;;5090878;28;20032;-61
2023/02/15 19:59:27;;;;;;;34.05;17.08;;;6.40;99.90;;;;;;5089821;28;20057;-61
2023/02/15 20:01:54;;;;;;;35.70;19.23;;;6.40;99.90;;;;;;5090340;28;20439;-61
2023/02/15 20:04:20;;;;;;;37.95;19.70;;;6.40;99.90;;;;;;5090784;28;20077;-61
2023/02/15 20:06:47;;;;;;;39.88;20.20;;;6.30;99.90;;;;;;5090618;28;20115;-61
2023/02/15 20:09:32;;;;;;;42.03;19.48;;;6.30;99.90;;;;;;5090127;28;20061;-61
